Wisdom — V2CK3 — position and weather

sailwx.info

Track history (hours):
 
Tides and Currents Weather Stations Pressure Air Temp Water Temp Dewpoint Dewpoint Depression Visibility Wind Speed Wind Dir Waves Ship Positions

Wisdom

Last reported at 2018-Apr-24 22:30 UTC. Time now 2018-Apr-24 22:51 UTC.
Position N 51°21' E 003°50'.

Length 116 m; draft 5 m.

Type: Cargo ship. MMSI: 305026000.

Date/timePositionNaut miles runAvg speedWind from/ knotsBaromVisibWave heightAir tempDewpointWater temp
2018-Apr-24 22:30N 51°21' E 003°50'510.8
2018-Apr-24 22:00N 51°24' E 003°57'3 6.1
2018-Apr-24 21:29N 51°25' E 004°02'4 8.1
2018-Apr-24 21:00N 51°22' E 004°07'4 6.4
2018-Apr-24 20:21N 51°22' E 004°14'2 7.1
2018-Apr-24 20:01N 51°21' E 004°17'0 0.0
2018-Apr-24 19:31N 51°21' E 004°17'0 0.8
2018-Apr-24 19:00N 51°21' E 004°18'3 5.6
2018-Apr-24 18:29N 51°18' E 004°20'1 2.8
2018-Apr-24 18:00N 51°17' E 004°21'1 1.8
2018-Apr-24 17:28N 51°17' E 004°23'0 0.0
2018-Apr-24 16:58N 51°17' E 004°23'0 0.0
2018-Apr-24 16:28N 51°17' E 004°23'0 0.0
2018-Apr-24 15:58N 51°17' E 004°23'0 0.0
2018-Apr-24 15:28N 51°17' E 004°23'0 0.0
2018-Apr-24 14:58N 51°17' E 004°23'0 0.0
2018-Apr-24 14:28N 51°17' E 004°23'0 0.0
2018-Apr-24 13:58N 51°17' E 004°23'0 0.0
2018-Apr-24 13:28N 51°17' E 004°23'0 0.0
2018-Apr-24 12:58N 51°17' E 004°23'0 0.0
2018-Apr-24 12:28N 51°17' E 004°23'0 0.0
2018-Apr-24 11:58N 51°17' E 004°23'0 0.0
2018-Apr-24 11:28N 51°17' E 004°23'0 0.0
2018-Apr-24 10:58N 51°17' E 004°23'0 0.0
2018-Apr-24 10:25N 51°17' E 004°23'0 0.0
2018-Apr-24 09:58N 51°17' E 004°23'0 0.0
2018-Apr-24 09:28N 51°17' E 004°23'0 0.0
2018-Apr-24 08:58N 51°17' E 004°23'0 0.0
2018-Apr-24 08:22N 51°17' E 004°23'0 0.0
2018-Apr-24 07:58N 51°17' E 004°23'0 0.0
2018-Apr-24 07:28N 51°17' E 004°23'0 0.0
2018-Apr-24 06:58N 51°17' E 004°23'0 0.0
2018-Apr-24 06:28N 51°17' E 004°23'0 0.0
2018-Apr-24 05:58N 51°17' E 004°23'0 0.0
2018-Apr-24 05:28N 51°17' E 004°23'0 0.0
2018-Apr-24 04:58N 51°17' E 004°23'0 0.0
2018-Apr-24 04:22N 51°17' E 004°23'0 0.0
2018-Apr-24 03:55N 51°17' E 004°23'0 0.0
2018-Apr-24 03:28N 51°17' E 004°23'0 0.0
2018-Apr-24 02:58N 51°17' E 004°23'0 0.0
2018-Apr-24 02:28N 51°17' E 004°23'0 0.1
2018-Apr-24 01:49N 51°17' E 004°23'0 0.1
2018-Apr-24 01:28N 51°17' E 004°23'0 0.0
2018-Apr-24 00:58N 51°17' E 004°23'0 0.0
2018-Apr-24 00:28N 51°17' E 004°23'0 0.0
2018-Apr-23 23:55N 51°17' E 004°23'0 0.0
2018-Apr-23 23:22N 51°17' E 004°23'0 0.0
2018-Apr-23 22:58N 51°17' E 004°23'0 0.0
2018-Apr-23 22:25N 51°17' E 004°23'0 0.0
2018-Apr-23 21:55N 51°17' E 004°23'0 0.0
2018-Apr-23 21:28N 51°17' E 004°23'0 0.0
2018-Apr-23 20:58N 51°17' E 004°23'0 0.0
2018-Apr-23 20:25N 51°17' E 004°23'0 0.0
2018-Apr-23 19:55N 51°17' E 004°23'0 0.0
2018-Apr-23 19:22N 51°17' E 004°23'0 0.0
2018-Apr-23 18:58N 51°17' E 004°23'0 0.0
2018-Apr-23 18:28N 51°17' E 004°23'0 0.0
2018-Apr-23 17:58N 51°17' E 004°23'0 0.0
2018-Apr-23 17:28N 51°17' E 004°23'0 0.0
2018-Apr-23 16:58N 51°17' E 004°23'0 0.0
2018-Apr-23 16:28N 51°17' E 004°23'0 0.0
2018-Apr-23 15:58N 51°17' E 004°23'0 0.0
2018-Apr-23 15:28N 51°17' E 004°23'0 0.0
2018-Apr-23 14:52N 51°17' E 004°23'0 0.0
2018-Apr-23 14:28N 51°17' E 004°23'0 0.0
2018-Apr-23 13:49N 51°17' E 004°23'0 0.0
2018-Apr-23 13:28N 51°17' E 004°23'0 0.0
2018-Apr-23 12:58N 51°17' E 004°23'0 0.0
2018-Apr-23 12:28N 51°17' E 004°23'0 0.0
2018-Apr-23 11:55N 51°17' E 004°23'0 0.0
2018-Apr-23 11:28N 51°17' E 004°23'0 0.0
2018-Apr-23 10:58N 51°17' E 004°23'0 0.0
2018-Apr-23 10:22N 51°17' E 004°23'0 0.0
2018-Apr-23 09:58N 51°17' E 004°23'0 0.0
2018-Apr-23 09:28N 51°17' E 004°23'0 0.0
2018-Apr-23 08:58N 51°17' E 004°23'0 0.0
2018-Apr-23 08:28N 51°17' E 004°23'0 0.0
2018-Apr-23 07:55N 51°17' E 004°23'0 0.0
2018-Apr-23 07:28N 51°17' E 004°23'1 2.3
2018-Apr-23 07:00N 51°17' E 004°21'3 6.2
2018-Apr-23 06:30N 51°20' E 004°18'1 2.6
2018-Apr-23 06:00N 51°21' E 004°17'0 0.0
2018-Apr-23 05:31N 51°21' E 004°17'0 0.0
2018-Apr-23 05:00N 51°21' E 004°17'0 0.0
2018-Apr-23 04:30N 51°21' E 004°17'1 1.5
2018-Apr-23 04:00N 51°21' E 004°16'4 8.8
2018-Apr-23 03:30N 51°24' E 004°11'611.1
2018-Apr-23 03:00N 51°23' E 004°02'3 6.0
2018-Apr-23 02:30N 51°24' E 003°57'611.5
2018-Apr-23 02:01N 51°21' E 003°50'611.4
2018-Apr-23 01:30N 51°24' E 003°42'5 9.8
2018-Apr-23 01:01N 51°26' E 003°35'5 9.6
2018-Apr-23 00:30N 51°25' E 003°27'510.5
2018-Apr-23 00:01N 51°24' E 003°19'510.1
2018-Apr-22 23:30N 51°24' E 003°11'510.9
2018-Apr-22 23:00N 51°24' E 003°02'611.4
2018-Apr-22 22:27N 51°22' E 002°52'511.3
2018-Apr-22 22:00N 51°22' E 002°44'3 6.4
2018-Apr-22 21:28N 51°21' E 002°39'4 8.7
2018-Apr-22 21:01N 51°20' E 002°32'0 0.4
2018-Apr-22 20:29N 51°20' E 002°32'0 0.0
2018-Apr-22 19:59N 51°20' E 002°32'0 0.0
2018-Apr-22 19:29N 51°20' E 002°32'0 0.1
2018-Apr-22 18:59N 51°20' E 002°32'0 0.1
2018-Apr-22 18:29N 51°20' E 002°32'0 0.1
2018-Apr-22 17:56N 51°20' E 002°32'0 0.0
2018-Apr-22 17:29N 51°20' E 002°32'0 0.0
2018-Apr-22 16:44N 51°20' E 002°32'0 0.0
2018-Apr-22 16:26N 51°20' E 002°32'0 0.1
2018-Apr-22 15:56N 51°20' E 002°32'0 0.0
2018-Apr-22 15:29N 51°20' E 002°32'0 0.1
2018-Apr-22 14:59N 51°20' E 002°32'0 0.1
2018-Apr-22 14:29N 51°20' E 002°32'0 0.2
2018-Apr-22 13:59N 51°20' E 002°32'0 0.0
2018-Apr-22 13:29N 51°20' E 002°32'0 0.0
2018-Apr-22 12:56N 51°20' E 002°32'0 0.0
2018-Apr-22 12:29N 51°20' E 002°32'0 0.0
2018-Apr-22 11:59N 51°20' E 002°32'0 0.0
2018-Apr-22 11:29N 51°20' E 002°32'0 0.0
2018-Apr-22 10:59N 51°20' E 002°32'0 0.0
2018-Apr-22 10:29N 51°20' E 002°32'0 0.1
2018-Apr-22 09:59N 51°20' E 002°32'0 0.0
2018-Apr-22 09:29N 51°20' E 002°32'0 0.1
2018-Apr-22 08:59N 51°20' E 002°32'0 0.0
2018-Apr-22 08:29N 51°20' E 002°32'0 0.0
2018-Apr-22 07:53N 51°20' E 002°32'0 0.0
2018-Apr-22 07:29N 51°20' E 002°32'0 0.0
2018-Apr-22 06:59N 51°20' E 002°32'0 0.0
2018-Apr-22 06:23N 51°20' E 002°32'0 0.0
2018-Apr-22 05:59N 51°20' E 002°32'0 0.0
2018-Apr-22 05:29N 51°20' E 002°32'0 0.0
2018-Apr-22 04:59N 51°20' E 002°32'0 0.0
2018-Apr-22 04:26N 51°20' E 002°32'0 0.1
2018-Apr-22 03:59N 51°20' E 002°32'0 0.1
2018-Apr-22 03:29N 51°20' E 002°32'0 0.0
2018-Apr-22 02:59N 51°20' E 002°32'0 0.0
2018-Apr-22 02:20N 51°20' E 002°32'0 0.5
2018-Apr-22 01:59N 51°20' E 002°32'0 0.1
2018-Apr-22 01:23N 51°20' E 002°32'0 0.0
2018-Apr-22 00:59N 51°20' E 002°32'0 0.0
2018-Apr-22 00:29N 51°20' E 002°32'0 0.0
2018-Apr-21 23:53N 51°20' E 002°32'0 0.0
2018-Apr-21 23:26N 51°20' E 002°32'0 0.0
2018-Apr-21 22:59N 51°20' E 002°32'0 0.0
2018-Apr-21 22:23N 51°20' E 002°32'0 0.1
2018-Apr-21 21:59N 51°20' E 002°32'0 0.0
2018-Apr-21 21:23N 51°20' E 002°32'0 0.0
2018-Apr-21 20:50N 51°20' E 002°32'0 0.0
2018-Apr-21 20:29N 51°20' E 002°32'0 0.0
2018-Apr-21 19:38N 51°20' E 002°32'0 0.0
2018-Apr-21 19:29N 51°20' E 002°32'0 0.0
2018-Apr-21 18:59N 51°20' E 002°32'0 0.1
2018-Apr-21 18:29N 51°20' E 002°32'0 0.1
2018-Apr-21 17:53N 51°20' E 002°32'0 0.0
2018-Apr-21 17:23N 51°20' E 002°32'0 1.1
2018-Apr-21 17:00N 51°21' E 002°32'3 4.3
2018-Apr-21 16:24N 51°21' E 002°28'7 9.0
2018-Apr-21 15:37N 51°18' E 002°18'112.2
2018-Apr-21 15:30N 51°17' E 002°16'612.1
2018-Apr-21 15:00N 51°14' E 002°08'611.9
2018-Apr-21 14:29N 51°11' E 001°59'611.6
2018-Apr-21 14:00N 51°08' E 001°52'611.3
2018-Apr-21 13:30N 51°05' E 001°45'510.8
2018-Apr-21 13:01N 51°01' E 001°39'510.0
2018-Apr-21 12:30N 50°57' E 001°33'5 9.3
2018-Apr-21 12:00N 50°54' E 001°28'4 8.7
2018-Apr-21 11:31N 50°50' E 001°26'49 8.7
2018-Apr-21 05:53N 50°22' E 000°22'4 9.6
2018-Apr-21 05:30N 50°21' E 000°17'5 9.7
2018-Apr-21 05:00N 50°20' E 000°10'5 9.8
2018-Apr-21 04:30N 50°18' E 000°02'510.1
2018-Apr-21 04:00N 50°17' W 000°05'510.3
2018-Apr-21 03:30N 50°15' W 000°13'510.5
2018-Apr-21 03:01N 50°14' W 000°21'510.9
2018-Apr-21 02:31N 50°12' W 000°29'611.5
2018-Apr-21 02:01N 50°11' W 000°38'612.3
2018-Apr-21 01:30N 50°09' W 000°47'713.1
2018-Apr-21 01:00N 50°07' W 000°57'713.6
2018-Apr-21 00:31N 50°06' W 001°07'714.2
2018-Apr-21 00:01N 50°04' W 001°18'714.5
2018-Apr-20 23:31N 50°02' W 001°29'714.8
2018-Apr-20 23:01N 50°00' W 001°40'815.5
2018-Apr-20 22:31N 49°59' W 001°52'714.8
2018-Apr-20 22:00N 49°57' W 002°03'714.1
2018-Apr-20 21:30N 49°55' W 002°14'1013.0
2018-Apr-20 20:42N 49°52' W 002°29'212.5
2018-Apr-20 20:30N 49°51' W 002°33'812.1
2018-Apr-20 19:53N 49°49' W 002°44'611.7
2018-Apr-20 19:24N 49°48' W 002°52'911.2
2018-Apr-20 18:38N 49°45' W 003°05'211.0
2018-Apr-20 18:30N 49°44' W 003°07'610.7
2018-Apr-20 17:55N 49°41' W 003°15'410.4
2018-Apr-20 17:30N 49°39' W 003°21'710.3
2018-Apr-20 16:50N 49°36' W 003°30'910.0
2018-Apr-20 15:57N 49°31' W 003°42'6 9.7
2018-Apr-20 15:21N 49°28' W 003°50'3 9.6
2018-Apr-20 15:00N 49°27' W 003°54'1210.1
2018-Apr-20 13:49N 49°20' W 004°10'3 9.9
2018-Apr-20 13:29N 49°18' W 004°14'5110.2
2018-Apr-20 08:27N 48°51' W 005°20'4011.6
2018-Apr-20 05:01N 48°21' W 006°00'311.9
2018-Apr-20 04:47N 48°19' W 006°03'53310.3
2018-Apr-18 00:50N 40°00' W 010°26'411.3
2018-Apr-18 00:29N 39°56' W 010°26'611.2
2018-Apr-17 23:58N 39°51' W 010°26'611.1
2018-Apr-17 23:28N 39°45' W 010°26'711.1
2018-Apr-17 22:51N 39°38' W 010°26'410.9
2018-Apr-17 22:30N 39°35' W 010°26'510.7
2018-Apr-17 22:00N 39°29' W 010°26'510.8
2018-Apr-17 21:30N 39°24' W 010°26'510.7
2018-Apr-17 21:00N 39°19' W 010°26'510.8
2018-Apr-17 20:30N 39°13' W 010°26'510.9
2018-Apr-17 20:00N 39°08' W 010°26'611.2
2018-Apr-17 19:30N 39°02' W 010°26'611.2
2018-Apr-17 19:00N 38°56' W 010°26'611.3
2018-Apr-17 18:28N 38°50' W 010°26'511.2
2018-Apr-17 18:00N 38°45' W 010°26'1111.1
2018-Apr-17 17:00N 38°34' W 010°24'611.4
2018-Apr-17 16:27N 38°28' W 010°22'511.3
2018-Apr-17 16:00N 38°23' W 010°20'611.4
2018-Apr-17 15:30N 38°18' W 010°18'611.5
2018-Apr-17 15:00N 38°12' W 010°17'611.4
2018-Apr-17 14:30N 38°07' W 010°15'711.7
2018-Apr-17 13:55N 37°60' W 010°13'511.8
2018-Apr-17 13:29N 37°55' W 010°12'611.8
2018-Apr-17 12:59N 37°49' W 010°11'812.1
2018-Apr-17 12:19N 37°41' W 010°09'  
Track history (hours):
 
Tides and Currents Weather Stations Pressure Air Temp Water Temp Dewpoint Dewpoint Depression Visibility Wind Speed Wind Dir Waves Ship Positions

Wisdom

Last reported at 2018-Apr-24 22:30 UTC. Time now 2018-Apr-24 22:51 UTC.
Position N 51°21' E 003°50'.

Length 116 m; draft 5 m.

Type: Cargo ship. MMSI: 305026000.

Date/timePositionNaut miles runAvg speedWind from/ knotsBaromVisibWave heightAir tempDewpointWater temp
2018-Apr-24 22:30N 51°21' E 003°50'510.8
2018-Apr-24 22:00N 51°24' E 003°57'3 6.1
2018-Apr-24 21:29N 51°25' E 004°02'4 8.1
2018-Apr-24 21:00N 51°22' E 004°07'4 6.4
2018-Apr-24 20:21N 51°22' E 004°14'2 7.1
2018-Apr-24 20:01N 51°21' E 004°17'0 0.0
2018-Apr-24 19:31N 51°21' E 004°17'0 0.8
2018-Apr-24 19:00N 51°21' E 004°18'3 5.6
2018-Apr-24 18:29N 51°18' E 004°20'1 2.8
2018-Apr-24 18:00N 51°17' E 004°21'1 1.8
2018-Apr-24 17:28N 51°17' E 004°23'0 0.0
2018-Apr-24 16:58N 51°17' E 004°23'0 0.0
2018-Apr-24 16:28N 51°17' E 004°23'0 0.0
2018-Apr-24 15:58N 51°17' E 004°23'0 0.0
2018-Apr-24 15:28N 51°17' E 004°23'0 0.0
2018-Apr-24 14:58N 51°17' E 004°23'0 0.0
2018-Apr-24 14:28N 51°17' E 004°23'0 0.0
2018-Apr-24 13:58N 51°17' E 004°23'0 0.0
2018-Apr-24 13:28N 51°17' E 004°23'0 0.0
2018-Apr-24 12:58N 51°17' E 004°23'0 0.0
2018-Apr-24 12:28N 51°17' E 004°23'0 0.0
2018-Apr-24 11:58N 51°17' E 004°23'0 0.0
2018-Apr-24 11:28N 51°17' E 004°23'0 0.0
2018-Apr-24 10:58N 51°17' E 004°23'0 0.0
2018-Apr-24 10:25N 51°17' E 004°23'0 0.0
2018-Apr-24 09:58N 51°17' E 004°23'0 0.0
2018-Apr-24 09:28N 51°17' E 004°23'0 0.0
2018-Apr-24 08:58N 51°17' E 004°23'0 0.0
2018-Apr-24 08:22N 51°17' E 004°23'0 0.0
2018-Apr-24 07:58N 51°17' E 004°23'0 0.0
2018-Apr-24 07:28N 51°17' E 004°23'0 0.0
2018-Apr-24 06:58N 51°17' E 004°23'0 0.0
2018-Apr-24 06:28N 51°17' E 004°23'0 0.0
2018-Apr-24 05:58N 51°17' E 004°23'0 0.0
2018-Apr-24 05:28N 51°17' E 004°23'0 0.0
2018-Apr-24 04:58N 51°17' E 004°23'0 0.0
2018-Apr-24 04:22N 51°17' E 004°23'0 0.0
2018-Apr-24 03:55N 51°17' E 004°23'0 0.0
2018-Apr-24 03:28N 51°17' E 004°23'0 0.0
2018-Apr-24 02:58N 51°17' E 004°23'0 0.0
2018-Apr-24 02:28N 51°17' E 004°23'0 0.1
2018-Apr-24 01:49N 51°17' E 004°23'0 0.1
2018-Apr-24 01:28N 51°17' E 004°23'0 0.0
2018-Apr-24 00:58N 51°17' E 004°23'0 0.0
2018-Apr-24 00:28N 51°17' E 004°23'0 0.0
2018-Apr-23 23:55N 51°17' E 004°23'0 0.0
2018-Apr-23 23:22N 51°17' E 004°23'0 0.0
2018-Apr-23 22:58N 51°17' E 004°23'0 0.0
2018-Apr-23 22:25N 51°17' E 004°23'0 0.0
2018-Apr-23 21:55N 51°17' E 004°23'0 0.0
2018-Apr-23 21:28N 51°17' E 004°23'0 0.0
2018-Apr-23 20:58N 51°17' E 004°23'0 0.0
2018-Apr-23 20:25N 51°17' E 004°23'0 0.0
2018-Apr-23 19:55N 51°17' E 004°23'0 0.0
2018-Apr-23 19:22N 51°17' E 004°23'0 0.0
2018-Apr-23 18:58N 51°17' E 004°23'0 0.0
2018-Apr-23 18:28N 51°17' E 004°23'0 0.0
2018-Apr-23 17:58N 51°17' E 004°23'0 0.0
2018-Apr-23 17:28N 51°17' E 004°23'0 0.0
2018-Apr-23 16:58N 51°17' E 004°23'0 0.0
2018-Apr-23 16:28N 51°17' E 004°23'0 0.0
2018-Apr-23 15:58N 51°17' E 004°23'0 0.0
2018-Apr-23 15:28N 51°17' E 004°23'0 0.0
2018-Apr-23 14:52N 51°17' E 004°23'0 0.0
2018-Apr-23 14:28N 51°17' E 004°23'0 0.0
2018-Apr-23 13:49N 51°17' E 004°23'0 0.0
2018-Apr-23 13:28N 51°17' E 004°23'0 0.0
2018-Apr-23 12:58N 51°17' E 004°23'0 0.0
2018-Apr-23 12:28N 51°17' E 004°23'0 0.0
2018-Apr-23 11:55N 51°17' E 004°23'0 0.0
2018-Apr-23 11:28N 51°17' E 004°23'0 0.0
2018-Apr-23 10:58N 51°17' E 004°23'0 0.0
2018-Apr-23 10:22N 51°17' E 004°23'0 0.0
2018-Apr-23 09:58N 51°17' E 004°23'0 0.0
2018-Apr-23 09:28N 51°17' E 004°23'0 0.0
2018-Apr-23 08:58N 51°17' E 004°23'0 0.0
2018-Apr-23 08:28N 51°17' E 004°23'0 0.0
2018-Apr-23 07:55N 51°17' E 004°23'0 0.0
2018-Apr-23 07:28N 51°17' E 004°23'1 2.3
2018-Apr-23 07:00N 51°17' E 004°21'3 6.2
2018-Apr-23 06:30N 51°20' E 004°18'1 2.6
2018-Apr-23 06:00N 51°21' E 004°17'0 0.0
2018-Apr-23 05:31N 51°21' E 004°17'0 0.0
2018-Apr-23 05:00N 51°21' E 004°17'0 0.0
2018-Apr-23 04:30N 51°21' E 004°17'1 1.5
2018-Apr-23 04:00N 51°21' E 004°16'4 8.8
2018-Apr-23 03:30N 51°24' E 004°11'611.1
2018-Apr-23 03:00N 51°23' E 004°02'3 6.0
2018-Apr-23 02:30N 51°24' E 003°57'611.5
2018-Apr-23 02:01N 51°21' E 003°50'611.4
2018-Apr-23 01:30N 51°24' E 003°42'5 9.8
2018-Apr-23 01:01N 51°26' E 003°35'5 9.6
2018-Apr-23 00:30N 51°25' E 003°27'510.5
2018-Apr-23 00:01N 51°24' E 003°19'510.1
2018-Apr-22 23:30N 51°24' E 003°11'510.9
2018-Apr-22 23:00N 51°24' E 003°02'611.4
2018-Apr-22 22:27N 51°22' E 002°52'511.3
2018-Apr-22 22:00N 51°22' E 002°44'3 6.4
2018-Apr-22 21:28N 51°21' E 002°39'4 8.7
2018-Apr-22 21:01N 51°20' E 002°32'0 0.4
2018-Apr-22 20:29N 51°20' E 002°32'0 0.0
2018-Apr-22 19:59N 51°20' E 002°32'0 0.0
2018-Apr-22 19:29N 51°20' E 002°32'0 0.1
2018-Apr-22 18:59N 51°20' E 002°32'0 0.1
2018-Apr-22 18:29N 51°20' E 002°32'0 0.1
2018-Apr-22 17:56N 51°20' E 002°32'0 0.0
2018-Apr-22 17:29N 51°20' E 002°32'0 0.0
2018-Apr-22 16:44N 51°20' E 002°32'0 0.0
2018-Apr-22 16:26N 51°20' E 002°32'0 0.1
2018-Apr-22 15:56N 51°20' E 002°32'0 0.0
2018-Apr-22 15:29N 51°20' E 002°32'0 0.1
2018-Apr-22 14:59N 51°20' E 002°32'0 0.1
2018-Apr-22 14:29N 51°20' E 002°32'0 0.2
2018-Apr-22 13:59N 51°20' E 002°32'0 0.0
2018-Apr-22 13:29N 51°20' E 002°32'0 0.0
2018-Apr-22 12:56N 51°20' E 002°32'0 0.0
2018-Apr-22 12:29N 51°20' E 002°32'0 0.0
2018-Apr-22 11:59N 51°20' E 002°32'0 0.0
2018-Apr-22 11:29N 51°20' E 002°32'0 0.0
2018-Apr-22 10:59N 51°20' E 002°32'0 0.0
2018-Apr-22 10:29N 51°20' E 002°32'0 0.1
2018-Apr-22 09:59N 51°20' E 002°32'0 0.0
2018-Apr-22 09:29N 51°20' E 002°32'0 0.1
2018-Apr-22 08:59N 51°20' E 002°32'0 0.0
2018-Apr-22 08:29N 51°20' E 002°32'0 0.0
2018-Apr-22 07:53N 51°20' E 002°32'0 0.0
2018-Apr-22 07:29N 51°20' E 002°32'0 0.0
2018-Apr-22 06:59N 51°20' E 002°32'0 0.0
2018-Apr-22 06:23N 51°20' E 002°32'0 0.0
2018-Apr-22 05:59N 51°20' E 002°32'0 0.0
2018-Apr-22 05:29N 51°20' E 002°32'0 0.0
2018-Apr-22 04:59N 51°20' E 002°32'0 0.0
2018-Apr-22 04:26N 51°20' E 002°32'0 0.1
2018-Apr-22 03:59N 51°20' E 002°32'0 0.1
2018-Apr-22 03:29N 51°20' E 002°32'0 0.0
2018-Apr-22 02:59N 51°20' E 002°32'0 0.0
2018-Apr-22 02:20N 51°20' E 002°32'0 0.5
2018-Apr-22 01:59N 51°20' E 002°32'0 0.1
2018-Apr-22 01:23N 51°20' E 002°32'0 0.0
2018-Apr-22 00:59N 51°20' E 002°32'0 0.0
2018-Apr-22 00:29N 51°20' E 002°32'0 0.0
2018-Apr-21 23:53N 51°20' E 002°32'0 0.0
2018-Apr-21 23:26N 51°20' E 002°32'0 0.0
2018-Apr-21 22:59N 51°20' E 002°32'0 0.0
2018-Apr-21 22:23N 51°20' E 002°32'0 0.1
2018-Apr-21 21:59N 51°20' E 002°32'0 0.0
2018-Apr-21 21:23N 51°20' E 002°32'0 0.0
2018-Apr-21 20:50N 51°20' E 002°32'0 0.0
2018-Apr-21 20:29N 51°20' E 002°32'0 0.0
2018-Apr-21 19:38N 51°20' E 002°32'0 0.0
2018-Apr-21 19:29N 51°20' E 002°32'0 0.0
2018-Apr-21 18:59N 51°20' E 002°32'0 0.1
2018-Apr-21 18:29N 51°20' E 002°32'0 0.1
2018-Apr-21 17:53N 51°20' E 002°32'0 0.0
2018-Apr-21 17:23N 51°20' E 002°32'0 1.1
2018-Apr-21 17:00N 51°21' E 002°32'3 4.3
2018-Apr-21 16:24N 51°21' E 002°28'7 9.0
2018-Apr-21 15:37N 51°18' E 002°18'112.2
2018-Apr-21 15:30N 51°17' E 002°16'612.1
2018-Apr-21 15:00N 51°14' E 002°08'611.9
2018-Apr-21 14:29N 51°11' E 001°59'611.6
2018-Apr-21 14:00N 51°08' E 001°52'611.3
2018-Apr-21 13:30N 51°05' E 001°45'510.8
2018-Apr-21 13:01N 51°01' E 001°39'510.0
2018-Apr-21 12:30N 50°57' E 001°33'5 9.3
2018-Apr-21 12:00N 50°54' E 001°28'4 8.7
2018-Apr-21 11:31N 50°50' E 001°26'49 8.7
2018-Apr-21 05:53N 50°22' E 000°22'4 9.6
2018-Apr-21 05:30N 50°21' E 000°17'5 9.7
2018-Apr-21 05:00N 50°20' E 000°10'5 9.8
2018-Apr-21 04:30N 50°18' E 000°02'510.1
2018-Apr-21 04:00N 50°17' W 000°05'510.3
2018-Apr-21 03:30N 50°15' W 000°13'510.5
2018-Apr-21 03:01N 50°14' W 000°21'510.9
2018-Apr-21 02:31N 50°12' W 000°29'611.5
2018-Apr-21 02:01N 50°11' W 000°38'612.3
2018-Apr-21 01:30N 50°09' W 000°47'713.1
2018-Apr-21 01:00N 50°07' W 000°57'713.6
2018-Apr-21 00:31N 50°06' W 001°07'714.2
2018-Apr-21 00:01N 50°04' W 001°18'714.5
2018-Apr-20 23:31N 50°02' W 001°29'714.8
2018-Apr-20 23:01N 50°00' W 001°40'815.5
2018-Apr-20 22:31N 49°59' W 001°52'714.8
2018-Apr-20 22:00N 49°57' W 002°03'714.1
2018-Apr-20 21:30N 49°55' W 002°14'1013.0
2018-Apr-20 20:42N 49°52' W 002°29'212.5
2018-Apr-20 20:30N 49°51' W 002°33'812.1
2018-Apr-20 19:53N 49°49' W 002°44'611.7
2018-Apr-20 19:24N 49°48' W 002°52'911.2
2018-Apr-20 18:38N 49°45' W 003°05'211.0
2018-Apr-20 18:30N 49°44' W 003°07'610.7
2018-Apr-20 17:55N 49°41' W 003°15'410.4
2018-Apr-20 17:30N 49°39' W 003°21'710.3
2018-Apr-20 16:50N 49°36' W 003°30'910.0
2018-Apr-20 15:57N 49°31' W 003°42'6 9.7
2018-Apr-20 15:21N 49°28' W 003°50'3 9.6
2018-Apr-20 15:00N 49°27' W 003°54'1210.1
2018-Apr-20 13:49N 49°20' W 004°10'3 9.9
2018-Apr-20 13:29N 49°18' W 004°14'5110.2
2018-Apr-20 08:27N 48°51' W 005°20'4011.6
2018-Apr-20 05:01N 48°21' W 006°00'311.9
2018-Apr-20 04:47N 48°19' W 006°03'53310.3
2018-Apr-18 00:50N 40°00' W 010°26'411.3
2018-Apr-18 00:29N 39°56' W 010°26'611.2
2018-Apr-17 23:58N 39°51' W 010°26'611.1
2018-Apr-17 23:28N 39°45' W 010°26'711.1
2018-Apr-17 22:51N 39°38' W 010°26'410.9
2018-Apr-17 22:30N 39°35' W 010°26'510.7
2018-Apr-17 22:00N 39°29' W 010°26'510.8
2018-Apr-17 21:30N 39°24' W 010°26'510.7
2018-Apr-17 21:00N 39°19' W 010°26'510.8
2018-Apr-17 20:30N 39°13' W 010°26'510.9
2018-Apr-17 20:00N 39°08' W 010°26'611.2
2018-Apr-17 19:30N 39°02' W 010°26'611.2
2018-Apr-17 19:00N 38°56' W 010°26'611.3
2018-Apr-17 18:28N 38°50' W 010°26'511.2
2018-Apr-17 18:00N 38°45' W 010°26'1111.1
2018-Apr-17 17:00N 38°34' W 010°24'611.4
2018-Apr-17 16:27N 38°28' W 010°22'511.3
2018-Apr-17 16:00N 38°23' W 010°20'611.4
2018-Apr-17 15:30N 38°18' W 010°18'611.5
2018-Apr-17 15:00N 38°12' W 010°17'611.4
2018-Apr-17 14:30N 38°07' W 010°15'711.7
2018-Apr-17 13:55N 37°60' W 010°13'511.8
2018-Apr-17 13:29N 37°55' W 010°12'611.8
2018-Apr-17 12:59N 37°49' W 010°11'812.1
2018-Apr-17 12:19N 37°41' W 010°09'  

Dump ship's entire track history